createdAt,value
2023-03-17T00:02:05.144Z,85.52
2023-03-17T00:04:33.446Z,85.50
2023-03-17T00:07:01.822Z,85.50
2023-03-17T00:09:29.909Z,85.52
2023-03-17T00:11:58.628Z,85.63
2023-03-17T00:14:26.755Z,85.77
2023-03-17T00:16:54.789Z,85.81
2023-03-17T00:19:32.338Z,85.39
2023-03-17T00:22:01.472Z,85.59
2023-03-17T00:24:29.942Z,85.75
2023-03-17T00:26:58.228Z,85.45
2023-03-17T00:29:26.961Z,85.20
2023-03-17T00:31:57.734Z,85.54
2023-03-17T00:34:25.891Z,85.63
2023-03-17T00:36:53.820Z,85.86
2023-03-17T00:39:25.520Z,85.91
2023-03-17T00:41:55.633Z,85.76
2023-03-17T00:44:24.306Z,85.59
2023-03-17T00:46:54.422Z,85.70
2023-03-17T00:49:25.126Z,85.23
2023-03-17T00:51:53.168Z,85.26
2023-03-17T00:54:23.390Z,85.45
2023-03-17T00:56:52.653Z,85.14
2023-03-17T00:59:24.344Z,85.16
2023-03-17T01:01:52.603Z,85.35
2023-03-17T01:04:23.007Z,85.25
2023-03-17T01:06:53.070Z,85.28
2023-03-17T01:09:25.976Z,85.03
2023-03-17T01:11:55.720Z,84.99
2023-03-17T01:14:25.206Z,85.23
2023-03-17T01:16:53.308Z,85.15
2023-03-17T01:19:22.176Z,84.95
2023-03-17T01:21:50.343Z,84.81
2023-03-17T01:24:18.659Z,84.74
2023-03-17T01:26:47.142Z,85.17
2023-03-17T01:29:16.611Z,85.41
2023-03-17T01:31:46.246Z,85.04
2023-03-17T01:34:14.331Z,84.95
2023-03-17T01:36:43.736Z,85.18
2023-03-17T01:39:12.907Z,85.34
2023-03-17T01:41:40.917Z,85.23
2023-03-17T01:44:17.213Z,85.36
2023-03-17T01:46:47.501Z,85.32
2023-03-17T01:49:27.867Z,85.23
2023-03-17T01:52:07.641Z,85.35
2023-03-17T01:54:52.883Z,85.14
2023-03-17T01:57:24.535Z,85.25
2023-03-17T01:59:58.874Z,85.34
2023-03-17T02:02:31.397Z,85.61
2023-03-17T02:05:00.344Z,85.96
2023-03-17T02:07:28.576Z,85.99
2023-03-17T02:09:58.129Z,86.14
2023-03-17T02:12:29.198Z,86.08
2023-03-17T02:14:57.962Z,86.01
2023-03-17T02:17:27.901Z,86.48
2023-03-17T02:19:56.199Z,86.56
2023-03-17T02:22:24.684Z,86.28
2023-03-17T02:24:58.549Z,86.65
2023-03-17T02:27:39.599Z,86.75
2023-03-17T02:30:11.962Z,86.99
2023-03-17T02:32:40.503Z,86.96
2023-03-17T02:35:09.677Z,86.79
2023-03-17T02:37:38.941Z,87.46
2023-03-17T02:40:08.203Z,87.52
2023-03-17T02:42:36.689Z,87.08
2023-03-17T02:45:06.389Z,87.14
2023-03-17T02:47:34.837Z,87.59
2023-03-17T02:50:04.806Z,87.65
2023-03-17T02:52:32.797Z,87.79
2023-03-17T02:55:00.956Z,87.52
2023-03-17T02:57:28.986Z,87.85
2023-03-17T02:59:57.007Z,87.89
2023-03-17T03:02:25.075Z,87.67
2023-03-17T03:04:53.286Z,87.68
2023-03-17T03:07:21.357Z,88.26
2023-03-17T03:09:49.395Z,87.78
2023-03-17T03:12:17.859Z,88.32
2023-03-17T03:14:46.107Z,87.71
2023-03-17T03:17:14.423Z,87.75
2023-03-17T03:19:42.609Z,87.67
2023-03-17T03:22:10.891Z,87.96
2023-03-17T03:24:38.920Z,87.94
2023-03-17T03:27:07.219Z,87.41
2023-03-17T03:29:35.491Z,87.70
2023-03-17T03:32:03.637Z,87.73
2023-03-17T03:34:31.919Z,87.60
2023-03-17T03:36:59.900Z,87.59
2023-03-17T03:39:27.858Z,88.24
2023-03-17T03:41:58.343Z,87.82
2023-03-17T03:44:26.379Z,88.51
2023-03-17T03:46:54.657Z,87.48
2023-03-17T03:49:23.039Z,87.88
2023-03-17T03:51:51.258Z,88.19
2023-03-17T03:54:19.324Z,88.05
2023-03-17T03:56:47.402Z,88.14
2023-03-17T03:59:15.396Z,88.29
2023-03-17T04:01:43.376Z,87.71
2023-03-17T04:04:11.340Z,87.79
2023-03-17T04:06:39.762Z,88.01
2023-03-17T04:09:09.352Z,88.17
2023-03-17T04:11:37.347Z,88.54
2023-03-17T04:14:06.547Z,87.82
2023-03-17T04:16:34.591Z,88.08
2023-03-17T04:19:02.944Z,88.27
2023-03-17T04:21:30.965Z,88.17
2023-03-17T04:23:59.259Z,88.59
2023-03-17T04:26:27.388Z,88.44
2023-03-17T04:28:55.644Z,88.33
2023-03-17T04:31:23.789Z,88.10
2023-03-17T04:33:52.355Z,88.82
2023-03-17T04:36:22.286Z,88.92
2023-03-17T04:38:50.891Z,88.77
2023-03-17T04:41:19.518Z,88.58
2023-03-17T04:43:47.985Z,88.86
2023-03-17T04:46:16.513Z,88.52
2023-03-17T04:48:44.851Z,88.05
2023-03-17T04:51:12.947Z,88.51
2023-03-17T04:53:41.206Z,88.74
2023-03-17T04:56:09.391Z,88.95
2023-03-17T04:58:38.311Z,88.74
2023-03-17T05:01:07.567Z,88.70
2023-03-17T05:03:36.206Z,88.90
2023-03-17T05:06:05.302Z,88.60
2023-03-17T05:08:33.401Z,88.97
2023-03-17T05:11:01.548Z,89.38
2023-03-17T05:13:29.717Z,89.22
2023-03-17T05:15:59.561Z,88.78
2023-03-17T05:18:28.174Z,89.05
2023-03-17T05:20:56.341Z,89.19
2023-03-17T05:23:24.756Z,89.27
2023-03-17T05:25:53.210Z,89.37
2023-03-17T05:28:22.231Z,89.21
2023-03-17T05:30:51.052Z,89.28
2023-03-17T05:33:20.334Z,89.09
2023-03-17T05:35:48.767Z,88.88
2023-03-17T05:38:17.237Z,88.96
2023-03-17T05:40:45.961Z,89.10
2023-03-17T05:43:14.249Z,89.22
2023-03-17T05:45:42.470Z,89.59
2023-03-17T05:48:12.452Z,89.37
2023-03-17T05:50:41.846Z,89.36
2023-03-17T05:53:10.783Z,89.22
2023-03-17T05:55:39.048Z,89.21
2023-03-17T05:58:08.010Z,89.14
2023-03-17T06:00:36.552Z,88.95
2023-03-17T06:03:05.250Z,89.22
2023-03-17T06:05:34.377Z,89.04
2023-03-17T06:08:02.620Z,88.70
2023-03-17T06:10:31.445Z,88.66
2023-03-17T06:13:03.876Z,88.66
2023-03-17T06:15:34.181Z,88.70
2023-03-17T06:18:05.291Z,88.71
2023-03-17T06:20:34.098Z,88.73
2023-03-17T06:23:05.289Z,88.43
2023-03-17T06:25:35.881Z,88.22
2023-03-17T06:28:05.749Z,88.55
2023-03-17T06:30:35.491Z,87.80
2023-03-17T06:33:04.067Z,88.07
2023-03-17T06:35:33.613Z,87.83
2023-03-17T06:38:02.508Z,87.54
2023-03-17T06:40:32.309Z,87.17
2023-03-17T06:43:01.345Z,86.90
2023-03-17T06:45:30.470Z,87.14
2023-03-17T06:47:59.014Z,86.97
2023-03-17T06:50:27.359Z,86.89
2023-03-17T06:52:56.149Z,86.55
2023-03-17T06:55:24.299Z,86.50
2023-03-17T06:57:52.683Z,86.32
2023-03-17T07:00:22.568Z,85.98
2023-03-17T07:02:51.346Z,85.98
2023-03-17T07:05:19.593Z,85.93
2023-03-17T07:07:47.933Z,85.71
2023-03-17T07:10:17.420Z,85.41
2023-03-17T07:12:46.121Z,85.16
2023-03-17T07:15:14.378Z,85.16
2023-03-17T07:17:42.672Z,84.98
2023-03-17T07:20:11.922Z,85.12
2023-03-17T07:22:41.180Z,84.72
2023-03-17T07:25:10.021Z,84.64
2023-03-17T07:27:38.916Z,84.22
2023-03-17T07:30:07.855Z,84.28
2023-03-17T07:32:36.384Z,83.98
2023-03-17T07:35:05.570Z,84.02
2023-03-17T07:37:33.817Z,83.90
2023-03-17T07:40:02.085Z,84.00
2023-03-17T07:42:30.387Z,83.63
2023-03-17T07:44:58.761Z,84.11
2023-03-17T07:47:27.202Z,83.65
2023-03-17T07:49:55.382Z,83.68
2023-03-17T07:52:23.467Z,83.02
2023-03-17T07:54:52.232Z,83.49
2023-03-17T07:57:20.491Z,83.64
2023-03-17T07:59:49.110Z,82.94
2023-03-17T08:02:18.387Z,83.25
2023-03-17T08:04:47.156Z,82.91
2023-03-17T08:07:15.710Z,82.77
2023-03-17T08:09:44.034Z,82.77
2023-03-17T08:12:12.331Z,82.61
2023-03-17T08:14:41.625Z,82.40
2023-03-17T08:17:10.632Z,81.53
2023-03-17T08:19:41.202Z,81.12
2023-03-17T08:22:09.979Z,81.54
2023-03-17T08:24:39.841Z,81.13
2023-03-17T08:27:08.838Z,81.17
2023-03-17T08:29:37.063Z,81.71
2023-03-17T08:32:05.973Z,81.83
2023-03-17T08:34:34.151Z,81.31
2023-03-17T08:37:03.010Z,81.60
2023-03-17T08:39:31.999Z,81.14
2023-03-17T08:42:00.135Z,80.58
2023-03-17T08:44:28.362Z,80.44
2023-03-17T08:46:57.061Z,80.05
2023-03-17T08:49:25.291Z,80.09
2023-03-17T08:51:53.731Z,79.81
2023-03-17T08:54:22.101Z,79.57
2023-03-17T08:56:50.196Z,79.69
2023-03-17T08:59:18.274Z,79.58
2023-03-17T09:01:47.224Z,79.67
2023-03-17T09:04:15.591Z,79.20
2023-03-17T09:07:01.298Z,79.17
2023-03-17T09:09:31.278Z,78.53
2023-03-17T09:11:59.488Z,78.36
2023-03-17T09:14:28.980Z,77.80
2023-03-17T09:16:57.805Z,77.76
2023-03-17T09:19:26.061Z,77.55
2023-03-17T09:21:54.219Z,77.93
2023-03-17T09:24:22.331Z,77.72
2023-03-17T09:26:50.566Z,77.39
2023-03-17T09:29:18.714Z,76.82
2023-03-17T09:31:47.658Z,76.61
2023-03-17T09:34:15.725Z,75.95
2023-03-17T09:36:43.947Z,75.51
2023-03-17T09:39:12.872Z,74.44
2023-03-17T09:41:43.721Z,73.54
2023-03-17T09:44:23.055Z,73.02
2023-03-17T09:47:25.630Z,71.76
2023-03-17T09:50:01.324Z,70.12
2023-03-17T09:52:32.101Z,70.41
2023-03-17T09:55:03.456Z,69.79
2023-03-17T09:57:37.184Z,69.39
2023-03-17T10:00:07.981Z,69.57
2023-03-17T10:02:40.629Z,68.44
2023-03-17T10:05:23.464Z,67.25
2023-03-17T10:08:28.893Z,67.33
2023-03-17T10:11:15.004Z,66.65
2023-03-17T10:13:54.969Z,66.59
2023-03-17T10:16:35.339Z,67.13
2023-03-17T10:19:13.025Z,67.33
2023-03-17T10:21:50.068Z,66.20
2023-03-17T10:24:19.711Z,66.22
2023-03-17T10:26:51.107Z,66.27
2023-03-17T10:29:22.847Z,66.21
2023-03-17T10:31:53.344Z,66.09
2023-03-17T10:34:32.293Z,65.83
2023-03-17T10:37:05.765Z,65.03
2023-03-17T10:39:49.384Z,65.61
2023-03-17T10:42:29.277Z,65.36
2023-03-17T10:45:13.382Z,65.22
2023-03-17T10:47:47.345Z,65.41
2023-03-17T10:50:18.470Z,65.44
2023-03-17T10:52:47.942Z,64.78
2023-03-17T10:55:21.499Z,64.94
2023-03-17T10:57:51.538Z,64.67
2023-03-17T11:00:22.036Z,63.78
2023-03-17T11:02:58.755Z,64.18
2023-03-17T11:05:30.411Z,63.76
2023-03-17T11:08:18.545Z,63.00
2023-03-17T11:10:53.799Z,62.70
2023-03-17T11:13:22.032Z,61.16
2023-03-17T11:15:54.651Z,59.92
2023-03-17T11:18:30.600Z,59.42
2023-03-17T11:21:08.356Z,58.25
2023-03-17T11:24:01.934Z,57.87
2023-03-17T11:26:39.074Z,57.97
2023-03-17T11:29:24.608Z,56.41
2023-03-17T11:32:11.168Z,56.69
2023-03-17T11:34:45.180Z,55.40
2023-03-17T11:37:19.505Z,54.83
2023-03-17T11:40:15.869Z,54.62
2023-03-17T11:42:53.516Z,53.39
2023-03-17T11:45:38.303Z,54.49
2023-03-17T11:48:32.322Z,54.01
2023-03-17T11:51:10.509Z,54.10
2023-03-17T11:54:01.173Z,53.50
2023-03-17T11:56:57.747Z,52.30
2023-03-17T11:59:36.335Z,53.45
2023-03-17T12:02:17.441Z,53.12
2023-03-17T12:05:21.932Z,52.93
2023-03-17T12:07:53.382Z,52.86
2023-03-17T12:10:28.854Z,52.93
2023-03-17T12:13:07.096Z,53.37
2023-03-17T12:15:51.172Z,52.67
2023-03-17T12:18:33.095Z,52.11
2023-03-17T12:21:09.705Z,52.85
2023-03-17T12:23:48.234Z,52.56
2023-03-17T12:26:35.162Z,51.53
2023-03-17T12:29:37.999Z,51.61
2023-03-17T12:32:12.564Z,51.05
2023-03-17T12:34:52.081Z,50.98
2023-03-17T12:37:21.591Z,50.26
2023-03-17T12:39:56.266Z,49.98
2023-03-17T12:42:33.028Z,49.96
2023-03-17T12:45:30.754Z,50.06
2023-03-17T12:48:17.477Z,49.37
2023-03-17T12:51:29.955Z,48.23
2023-03-17T12:54:00.259Z,47.64
2023-03-17T12:56:31.680Z,46.55
2023-03-17T12:59:06.190Z,46.09
2023-03-17T13:01:40.678Z,44.95
2023-03-17T13:05:00.113Z,43.98
2023-03-17T13:08:00.413Z,43.01
2023-03-17T13:10:48.097Z,41.73
2023-03-17T13:13:41.178Z,41.79
2023-03-17T13:16:41.287Z,41.30
2023-03-17T13:19:16.549Z,41.08
2023-03-17T13:21:53.363Z,40.86
2023-03-17T13:24:34.522Z,41.20
2023-03-17T13:27:04.747Z,42.37
2023-03-17T13:29:33.013Z,42.39
2023-03-17T13:32:16.055Z,40.90
2023-03-17T13:35:18.109Z,42.53
2023-03-17T13:38:13.480Z,41.88
2023-03-17T13:41:12.578Z,41.65
2023-03-17T13:43:50.349Z,41.71
2023-03-17T13:46:25.637Z,41.71
2023-03-17T13:48:56.145Z,41.39
2023-03-17T13:51:27.505Z,41.47
2023-03-17T13:53:58.172Z,42.19
2023-03-17T13:56:41.601Z,41.10
2023-03-17T13:59:16.010Z,40.17
2023-03-17T14:01:55.822Z,40.50
2023-03-17T14:04:30.975Z,40.42
2023-03-17T14:07:07.023Z,39.25
2023-03-17T14:09:42.425Z,38.50
2023-03-17T14:12:22.020Z,38.32
2023-03-17T14:15:07.049Z,37.54
2023-03-17T14:17:50.667Z,37.54
2023-03-17T14:20:20.457Z,36.93
2023-03-17T14:22:55.721Z,36.65
2023-03-17T14:25:27.403Z,36.08
2023-03-17T14:27:58.137Z,35.67
2023-03-17T14:30:29.468Z,35.38
2023-03-17T14:33:05.592Z,35.53
2023-03-17T14:35:39.349Z,35.70
2023-03-17T14:38:24.231Z,36.64
2023-03-17T14:41:01.559Z,35.64
2023-03-17T14:43:29.773Z,35.20
2023-03-17T14:46:14.805Z,35.47
2023-03-17T14:48:46.900Z,34.65
2023-03-17T14:51:15.097Z,34.81
2023-03-17T14:53:46.487Z,34.73
2023-03-17T14:56:14.819Z,34.86
2023-03-17T14:58:45.689Z,34.92
2023-03-17T15:01:18.543Z,35.26
2023-03-17T15:03:59.695Z,36.22
2023-03-17T15:06:30.134Z,36.11
2023-03-17T15:09:00.527Z,36.17
2023-03-17T15:11:48.233Z,35.96
2023-03-17T15:14:21.727Z,36.16
2023-03-17T15:16:53.468Z,36.92
2023-03-17T15:19:21.568Z,37.50
2023-03-17T15:21:50.025Z,37.87
2023-03-17T15:24:28.918Z,38.61
2023-03-17T15:27:18.007Z,38.37
2023-03-17T15:29:46.786Z,39.13
2023-03-17T15:32:20.092Z,39.47
2023-03-17T15:34:50.548Z,39.99
2023-03-17T15:37:27.621Z,40.24
2023-03-17T15:39:56.740Z,40.90
2023-03-17T15:42:28.324Z,41.74
2023-03-17T15:44:57.004Z,42.11
2023-03-17T15:47:28.393Z,42.70
2023-03-17T15:50:13.738Z,43.25
2023-03-17T15:52:42.949Z,43.94
2023-03-17T15:55:22.473Z,44.30
2023-03-17T15:57:55.232Z,44.71
2023-03-17T16:00:26.636Z,45.23
2023-03-17T16:02:59.027Z,45.51
2023-03-17T16:05:31.343Z,45.69
2023-03-17T16:07:59.528Z,46.21
2023-03-17T16:10:30.848Z,46.65
2023-03-17T16:12:59.844Z,47.00
2023-03-17T16:15:31.622Z,47.17
2023-03-17T16:18:02.761Z,47.54
2023-03-17T16:20:38.665Z,47.86
2023-03-17T16:23:14.254Z,48.00
2023-03-17T16:25:42.578Z,48.13
2023-03-17T16:28:23.375Z,48.84
2023-03-17T16:30:53.190Z,48.74
2023-03-17T16:33:24.002Z,49.20
2023-03-17T16:35:53.722Z,49.45
2023-03-17T16:38:30.316Z,49.74
2023-03-17T16:41:08.006Z,49.72
2023-03-17T16:43:38.101Z,50.07
2023-03-17T16:46:07.290Z,50.08
2023-03-17T16:48:35.834Z,50.43
2023-03-17T16:51:05.124Z,50.85
2023-03-17T16:53:33.373Z,50.68
2023-03-17T16:56:01.664Z,51.08
2023-03-17T16:58:34.753Z,51.22
2023-03-17T17:01:09.991Z,51.23
2023-03-17T17:03:46.867Z,51.32
2023-03-17T17:06:15.582Z,52.00
2023-03-17T17:08:45.139Z,51.97
2023-03-17T17:11:15.267Z,52.32
2023-03-17T17:13:46.678Z,52.36
2023-03-17T17:16:23.066Z,52.34
2023-03-17T17:18:51.352Z,52.66
2023-03-17T17:21:19.522Z,52.99
2023-03-17T17:23:47.789Z,52.58
2023-03-17T17:26:15.973Z,52.84
2023-03-17T17:28:44.230Z,53.04
2023-03-17T17:31:12.555Z,53.31
2023-03-17T17:33:40.758Z,53.26
2023-03-17T17:36:14.799Z,53.56
2023-03-17T17:38:44.019Z,53.41
2023-03-17T17:41:13.118Z,53.63
2023-03-17T17:43:41.441Z,53.75
2023-03-17T17:46:12.497Z,54.01
2023-03-17T17:48:41.062Z,54.11
2023-03-17T17:51:09.444Z,54.16
2023-03-17T17:53:37.611Z,54.16
2023-03-17T17:56:07.333Z,54.47
2023-03-17T17:58:35.552Z,54.46
2023-03-17T18:01:05.605Z,54.54
2023-03-17T18:03:34.011Z,54.75
2023-03-17T18:06:02.231Z,54.67
2023-03-17T18:08:30.371Z,54.86
2023-03-17T18:10:58.834Z,55.09
2023-03-17T18:13:27.017Z,55.09
2023-03-17T18:15:55.168Z,55.20
2023-03-17T18:18:23.344Z,55.39
2023-03-17T18:20:52.645Z,55.51
2023-03-17T18:23:21.259Z,55.75
2023-03-17T18:25:49.720Z,55.68
2023-03-17T18:28:18.075Z,55.80
2023-03-17T18:30:47.017Z,56.03
2023-03-17T18:33:20.069Z,56.15
2023-03-17T18:35:51.144Z,55.92
2023-03-17T18:38:19.514Z,56.04
2023-03-17T18:40:47.648Z,56.16
2023-03-17T18:43:15.965Z,56.08
2023-03-17T18:45:44.954Z,56.39
2023-03-17T18:48:13.129Z,56.36
2023-03-17T18:50:41.299Z,56.38
2023-03-17T18:53:09.660Z,56.68
2023-03-17T18:55:38.043Z,56.51
2023-03-17T18:58:06.495Z,56.68
2023-03-17T19:00:34.735Z,56.74
2023-03-17T19:03:02.943Z,56.81
2023-03-17T19:05:31.512Z,56.86
2023-03-17T19:07:59.607Z,56.93
2023-03-17T19:10:27.788Z,56.96
2023-03-17T19:12:56.272Z,57.13
2023-03-17T19:15:25.454Z,57.14
2023-03-17T19:17:53.587Z,57.37
2023-03-17T19:20:22.165Z,57.21
2023-03-17T19:22:53.293Z,57.46
2023-03-17T19:25:21.721Z,57.52
2023-03-17T19:27:49.853Z,57.42
2023-03-17T19:30:18.814Z,57.37
2023-03-17T19:32:47.398Z,57.45
2023-03-17T19:35:15.599Z,57.76
2023-03-17T19:37:43.648Z,57.80
2023-03-17T19:40:13.441Z,57.74
2023-03-17T19:42:41.600Z,57.64
2023-03-17T19:45:10.762Z,57.79
2023-03-17T19:47:39.121Z,57.98
2023-03-17T19:50:07.907Z,58.00
2023-03-17T19:52:36.004Z,57.92
2023-03-17T19:55:07.009Z,58.10
2023-03-17T19:57:36.645Z,57.90
2023-03-17T20:00:08.950Z,58.16
2023-03-17T20:02:37.985Z,58.08
2023-03-17T20:05:07.044Z,58.07
2023-03-17T20:07:35.316Z,58.12
2023-03-17T20:10:05.229Z,58.08
2023-03-17T20:12:37.523Z,58.15
2023-03-17T20:15:07.900Z,58.08
2023-03-17T20:17:37.002Z,58.05
2023-03-17T20:20:07.203Z,58.10
2023-03-17T20:22:35.559Z,57.85
2023-03-17T20:25:06.905Z,58.02
2023-03-17T20:27:36.121Z,57.96
2023-03-17T20:30:05.940Z,58.05
2023-03-17T20:32:34.760Z,58.05
2023-03-17T20:35:02.987Z,57.87
2023-03-17T20:37:32.426Z,58.00
2023-03-17T20:40:02.973Z,57.83
2023-03-17T20:42:31.470Z,57.92
2023-03-17T20:45:00.277Z,57.98
2023-03-17T20:47:28.611Z,57.96
2023-03-17T20:49:58.969Z,57.99
2023-03-17T20:52:30.130Z,58.20
2023-03-17T20:55:00.229Z,58.02
2023-03-17T20:57:28.924Z,57.89
2023-03-17T20:59:58.188Z,57.81
2023-03-17T21:02:26.300Z,57.90
2023-03-17T21:04:54.664Z,57.93
2023-03-17T21:07:22.758Z,57.82
2023-03-17T21:09:51.709Z,57.83
2023-03-17T21:12:21.070Z,57.87
2023-03-17T21:14:49.891Z,58.02
2023-03-17T21:17:18.262Z,58.09
2023-03-17T21:19:46.488Z,58.04
2023-03-17T21:22:14.635Z,58.12
2023-03-17T21:24:42.740Z,57.96
2023-03-17T21:27:11.376Z,58.31
2023-03-17T21:29:40.600Z,58.06
2023-03-17T21:32:08.820Z,58.08
2023-03-17T21:34:38.307Z,57.85
2023-03-17T21:37:06.413Z,57.78
2023-03-17T21:39:36.300Z,57.82
2023-03-17T21:42:05.352Z,58.08
2023-03-17T21:44:33.477Z,57.99
2023-03-17T21:47:03.098Z,58.00
2023-03-17T21:49:31.233Z,57.83
2023-03-17T21:51:59.466Z,57.86
2023-03-17T21:54:28.505Z,57.98
2023-03-17T21:56:57.247Z,57.80
2023-03-17T21:59:25.706Z,57.87
2023-03-17T22:01:53.796Z,57.93
2023-03-17T22:04:21.852Z,57.94
2023-03-17T22:06:53.394Z,58.05
2023-03-17T22:09:22.852Z,57.71
2023-03-17T22:11:50.917Z,57.70
2023-03-17T22:14:20.797Z,57.93
2023-03-17T22:16:49.587Z,57.77
2023-03-17T22:19:21.013Z,57.84
2023-03-17T22:21:50.223Z,57.78
2023-03-17T22:24:18.437Z,57.77
2023-03-17T22:26:46.816Z,57.97
2023-03-17T22:29:16.224Z,57.81
2023-03-17T22:31:44.466Z,57.81
2023-03-17T22:34:12.788Z,57.95
2023-03-17T22:36:41.622Z,57.86
2023-03-17T22:39:10.613Z,57.83
2023-03-17T22:41:39.271Z,57.79
2023-03-17T22:44:09.204Z,57.98
2023-03-17T22:46:40.941Z,57.76
2023-03-17T22:49:09.723Z,57.72
2023-03-17T22:51:38.776Z,57.65
2023-03-17T22:54:08.678Z,57.60
2023-03-17T22:56:37.694Z,57.49
2023-03-17T22:59:06.017Z,57.27
2023-03-17T23:01:34.205Z,57.10
2023-03-17T23:04:02.400Z,57.38
2023-03-17T23:06:30.880Z,57.14
2023-03-17T23:08:58.970Z,57.39
2023-03-17T23:11:27.100Z,57.16
2023-03-17T23:13:55.904Z,56.83
2023-03-17T23:16:24.436Z,56.79
2023-03-17T23:18:52.814Z,56.32
2023-03-17T23:21:33.371Z,56.43
2023-03-17T23:24:02.509Z,56.53
2023-03-17T23:26:32.121Z,56.44
2023-03-17T23:29:00.866Z,56.20
2023-03-17T23:31:29.078Z,56.18
2023-03-17T23:33:57.153Z,55.78
2023-03-17T23:36:25.364Z,55.93
2023-03-17T23:38:53.634Z,55.87
2023-03-17T23:41:22.800Z,55.93
2023-03-17T23:43:51.202Z,56.28
2023-03-17T23:46:20.723Z,55.96
2023-03-17T23:48:49.442Z,55.95
2023-03-17T23:51:18.017Z,55.91
2023-03-17T23:53:46.575Z,55.86
2023-03-17T23:56:14.901Z,55.86
2023-03-17T23:58:43.452Z,55.84
